POD3 KMSL-KWWR
Flight info
| Callsign | POD3 |
|---|---|
| Flight time | N/A |
| Altitude | 43000 |
| Route | BEATS J66 LIT J14 IRW SCUFF |
| Aircraft | CL30/M-SDFGIRW/S |
Departure
| Time | 2026-05-07 00:40 |
|---|---|
| Airport | Northwest Alabama Regional Airport (KMSL) |
Arrival
| Time | N/A |
|---|---|
| Airport | West Woodward Airport (KWWR) |
| Time | Latitude | Longitude | Altitude | Speed | Heading |
|---|---|---|---|---|---|
| 2026-05-07 00:26 | 34.74609 | -87.61788 | 541 ft | 0 kts | 270° |
| 2026-05-07 00:33 | 34.74609 | -87.61792 | 541 ft | 0 kts | 270° |
| 2026-05-07 00:33 | 34.74614 | -87.61817 | 541 ft | 7 kts | 290° |
| 2026-05-07 00:33 | 34.74681 | -87.61824 | 541 ft | 13 kts | 17° |
| 2026-05-07 00:33 | 34.74719 | -87.61722 | 541 ft | 12 kts | 87° |
| 2026-05-07 00:34 | 34.74688 | -87.61715 | 541 ft | 15 kts | 187° |
| 2026-05-07 00:34 | 34.74547 | -87.61690 | 541 ft | 19 kts | 104° |
| 2026-05-07 00:34 | 34.74539 | -87.61546 | 544 ft | 17 kts | 97° |
| 2026-05-07 00:34 | 34.74522 | -87.61365 | 544 ft | 25 kts | 96° |
| 2026-05-07 00:35 | 34.74500 | -87.61122 | 544 ft | 32 kts | 95° |
| 2026-05-07 00:35 | 34.74469 | -87.60869 | 541 ft | 27 kts | 114° |
| 2026-05-07 00:35 | 34.74403 | -87.60686 | 543 ft | 20 kts | 114° |
| 2026-05-07 00:35 | 34.74355 | -87.60555 | 544 ft | 15 kts | 114° |
| 2026-05-07 00:36 | 34.74301 | -87.60410 | 545 ft | 22 kts | 114° |
| 2026-05-07 00:36 | 34.74228 | -87.60209 | 545 ft | 29 kts | 114° |
| 2026-05-07 00:36 | 34.74137 | -87.59954 | 544 ft | 35 kts | 113° |
| 2026-05-07 00:36 | 34.74068 | -87.59737 | 541 ft | 19 kts | 65° |
| 2026-05-07 00:37 | 34.74100 | -87.59708 | 541 ft | 0 kts | 22° |
| 2026-05-07 00:40 | 34.74114 | -87.59701 | 541 ft | 9 kts | 17° |
| 2026-05-07 00:40 | 34.74210 | -87.59836 | 542 ft | 46 kts | 295° |
| 2026-05-07 00:40 | 34.74459 | -87.60506 | 543 ft | 127 kts | 294° |
| 2026-05-07 00:40 | 34.74843 | -87.61563 | 1238 ft | 137 kts | 296° |
| 2026-05-07 00:41 | 34.74992 | -87.62671 | 2019 ft | 146 kts | 257° |
| 2026-05-07 00:41 | 34.74398 | -87.63826 | 2407 ft | 192 kts | 219° |
| 2026-05-07 00:41 | 34.72999 | -87.64461 | 2867 ft | 237 kts | 193° |
| 2026-05-07 00:41 | 34.71400 | -87.64899 | 4080 ft | 244 kts | 198° |
| 2026-05-07 00:42 | 34.69856 | -87.65658 | 5359 ft | 245 kts | 210° |
| 2026-05-07 00:42 | 34.68412 | -87.66702 | 6568 ft | 247 kts | 217° |
| 2026-05-07 00:42 | 34.67071 | -87.67957 | 7740 ft | 245 kts | 234° |
| 2026-05-07 00:42 | 34.66491 | -87.69774 | 8875 ft | 233 kts | 273° |
| 2026-05-07 00:43 | 34.66657 | -87.71699 | 9887 ft | 238 kts | 280° |
| 2026-05-07 00:43 | 34.66935 | -87.73840 | 10014 ft | 274 kts | 281° |
| 2026-05-07 00:43 | 34.67267 | -87.76140 | 10007 ft | 284 kts | 282° |
| 2026-05-07 00:43 | 34.67630 | -87.78504 | 10036 ft | 287 kts | 282° |
| 2026-05-07 00:44 | 34.68005 | -87.80868 | 10228 ft | 296 kts | 283° |
| 2026-05-07 00:44 | 34.68401 | -87.83326 | 11514 ft | 294 kts | 282° |
| 2026-05-07 00:44 | 34.68766 | -87.85580 | 13304 ft | 271 kts | 282° |
| 2026-05-07 00:44 | 34.69126 | -87.87802 | 14395 ft | 271 kts | 282° |
| 2026-05-07 00:45 | 34.69494 | -87.90060 | 15274 ft | 277 kts | 282° |
| 2026-05-07 00:45 | 34.69867 | -87.92361 | 16191 ft | 281 kts | 282° |
| 2026-05-07 00:45 | 34.70244 | -87.94679 | 17102 ft | 283 kts | 282° |
| 2026-05-07 00:45 | 34.70626 | -87.97032 | 17976 ft | 286 kts | 282° |
| 2026-05-07 00:46 | 34.71006 | -87.99381 | 18795 ft | 289 kts | 282° |
| 2026-05-07 00:46 | 34.71394 | -88.01771 | 19587 ft | 292 kts | 282° |
| 2026-05-07 00:46 | 34.71785 | -88.04192 | 20369 ft | 294 kts | 282° |
| 2026-05-07 00:46 | 34.72181 | -88.06644 | 21124 ft | 297 kts | 282° |
| 2026-05-07 00:47 | 34.72578 | -88.09102 | 21834 ft | 300 kts | 282° |
| 2026-05-07 00:47 | 34.72982 | -88.11614 | 22529 ft | 303 kts | 282° |
| 2026-05-07 00:47 | 34.73387 | -88.14133 | 23196 ft | 305 kts | 282° |
| 2026-05-07 00:47 | 34.73796 | -88.16672 | 23846 ft | 308 kts | 282° |
| 2026-05-07 00:48 | 34.74202 | -88.19210 | 24472 ft | 310 kts | 283° |
| 2026-05-07 00:48 | 34.74615 | -88.21783 | 25065 ft | 313 kts | 282° |
| 2026-05-07 00:48 | 34.75032 | -88.24390 | 25641 ft | 316 kts | 283° |
| 2026-05-07 00:48 | 34.75453 | -88.27029 | 26196 ft | 318 kts | 282° |
| 2026-05-07 00:49 | 34.75880 | -88.29702 | 26736 ft | 321 kts | 282° |
| 2026-05-07 00:49 | 34.76304 | -88.32368 | 27282 ft | 323 kts | 282° |
| 2026-05-07 00:49 | 34.76731 | -88.35049 | 27787 ft | 325 kts | 283° |
| 2026-05-07 00:49 | 34.77160 | -88.37746 | 28275 ft | 327 kts | 283° |
| 2026-05-07 00:50 | 34.77596 | -88.40494 | 28773 ft | 329 kts | 283° |
| 2026-05-07 00:50 | 34.78028 | -88.43230 | 29215 ft | 332 kts | 282° |
| 2026-05-07 00:50 | 34.78469 | -88.46016 | 29645 ft | 335 kts | 282° |
| 2026-05-07 00:50 | 34.78905 | -88.48784 | 30080 ft | 336 kts | 283° |
| 2026-05-07 00:51 | 34.79346 | -88.51583 | 30528 ft | 338 kts | 282° |
| 2026-05-07 00:51 | 34.79655 | -88.54436 | 30945 ft | 341 kts | 277° |
| 2026-05-07 00:51 | 34.79852 | -88.57317 | 31318 ft | 343 kts | 277° |
| 2026-05-07 00:51 | 34.80042 | -88.60207 | 31701 ft | 345 kts | 277° |
| 2026-05-07 00:52 | 34.80228 | -88.63146 | 32070 ft | 347 kts | 277° |
| 2026-05-07 00:52 | 34.80413 | -88.66108 | 32408 ft | 350 kts | 276° |
| 2026-05-07 00:52 | 34.80596 | -88.69087 | 32788 ft | 351 kts | 276° |
| 2026-05-07 00:52 | 34.80775 | -88.72058 | 33165 ft | 353 kts | 276° |
| 2026-05-07 00:53 | 34.80955 | -88.75054 | 33525 ft | 354 kts | 276° |
| 2026-05-07 00:53 | 34.81129 | -88.78006 | 33807 ft | 357 kts | 276° |
| 2026-05-07 00:53 | 34.81308 | -88.81029 | 34143 ft | 359 kts | 276° |
| 2026-05-07 00:53 | 34.81486 | -88.84085 | 34456 ft | 360 kts | 277° |
| 2026-05-07 00:54 | 34.81664 | -88.87159 | 34736 ft | 363 kts | 277° |
| 2026-05-07 00:54 | 34.81842 | -88.90223 | 35026 ft | 365 kts | 277° |
| 2026-05-07 00:54 | 34.82018 | -88.93287 | 35341 ft | 365 kts | 277° |
| 2026-05-07 00:54 | 34.82198 | -88.96407 | 35623 ft | 367 kts | 277° |
| 2026-05-07 00:55 | 34.82373 | -88.99485 | 35885 ft | 369 kts | 277° |
| 2026-05-07 00:55 | 34.82550 | -89.02590 | 36232 ft | 368 kts | 278° |
| 2026-05-07 00:55 | 34.82726 | -89.05701 | 36539 ft | 368 kts | 278° |
| 2026-05-07 00:55 | 34.82905 | -89.08852 | 36844 ft | 369 kts | 277° |
| 2026-05-07 00:56 | 34.83079 | -89.11955 | 37168 ft | 368 kts | 277° |
| 2026-05-07 00:56 | 34.83250 | -89.15035 | 37467 ft | 368 kts | 278° |
| 2026-05-07 00:56 | 34.83425 | -89.18153 | 37751 ft | 368 kts | 277° |
| 2026-05-07 00:56 | 34.83596 | -89.21265 | 38026 ft | 368 kts | 278° |
| 2026-05-07 00:57 | 34.83767 | -89.24352 | 38314 ft | 368 kts | 278° |
| 2026-05-07 00:57 | 34.83938 | -89.27486 | 38559 ft | 369 kts | 277° |
| 2026-05-07 00:57 | 34.84109 | -89.30608 | 38838 ft | 368 kts | 277° |
| 2026-05-07 00:57 | 34.84274 | -89.33683 | 39567 ft | 355 kts | 278° |
| 2026-05-07 00:58 | 34.84431 | -89.36611 | 40396 ft | 339 kts | 278° |
| 2026-05-07 00:58 | 34.84584 | -89.39446 | 40725 ft | 337 kts | 278° |
| 2026-05-07 00:58 | 34.84896 | -89.45245 | 40822 ft | 347 kts | 278° |
| 2026-05-07 00:59 | 34.85207 | -89.51086 | 41272 ft | 346 kts | 278° |
| 2026-05-07 00:59 | 34.85359 | -89.53995 | 41528 ft | 345 kts | 278° |
| 2026-05-07 00:59 | 34.85513 | -89.56935 | 41683 ft | 346 kts | 278° |
| 2026-05-07 01:00 | 34.85664 | -89.59840 | 41870 ft | 346 kts | 278° |
| 2026-05-07 01:00 | 34.85817 | -89.62775 | 42068 ft | 346 kts | 278° |